Garwood, New Jersey
Current Conditions -  °F | °C
As of 12:55 AM on Monday 20 Oct 2014 (Local Time) from KLDJ Reporting Station
Clear Clear  
Wind Chill: 43°   Ceiling: Unl
Heat Index: 46°   Visibility: 10mi
Dew Point: 32°   Wind: 5mph
Humidity: 59%   Direction: 310°NW
Pressure: 30.09"   Gusts: NA
Location:  40.66°N, 74.32°W
Report Text: KLDJ 200455Z AUTO 31004KT 10SM CLR 08/00 A3009 RMK AO2 T00750000
Loading
Personal Weather Stations






























Interactive Weather Map
Tropical Storm Tracking
New forecast layout! Learn more

10-Day Weather Forecast

Advertisements
Track Severe Weather on mobile